Time;durP1;ratioP1;P1;durP2;ratioP2;P2;SDS_P1;SDS_P2;PMS_P1;PMS_P2;Temp;Humidity;BMP_temperature;BMP_pressure;BME280_temperature;BME280_humidity;BME280_pressure;Samples;Min_cycle;Max_cycle;Signal;HPM_P1;HPM_P2
2022/04/19 00:00:47;;;;;;;3.47;2.72;;;11.80;93.20;;;;;;5035926;28;20029;-73
2022/04/19 00:03:15;;;;;;;4.45;2.95;;;11.80;93.40;;;;;;5044490;28;20073;-73
2022/04/19 00:05:41;;;;;;;4.30;3.28;;;11.80;92.80;;;;;;5043681;28;20033;-73
2022/04/19 00:08:08;;;;;;;5.20;2.72;;;11.70;93.00;;;;;;5040017;28;20029;-73
2022/04/19 00:10:35;;;;;;;5.03;3.20;;;11.70;92.60;;;;;;5043579;28;20082;-74
2022/04/19 00:13:03;;;;;;;5.53;3.40;;;11.70;92.50;;;;;;5041000;28;20032;-73
2022/04/19 00:15:30;;;;;;;4.47;3.63;;;11.70;93.00;;;;;;5044224;28;20104;-73
2022/04/19 00:17:56;;;;;;;8.02;3.35;;;11.60;93.70;;;;;;5043178;28;20062;-72
2022/04/19 00:20:24;;;;;;;8.15;4.40;;;11.40;93.80;;;;;;5037694;28;20028;-73
2022/04/19 00:22:49;;;;;;;5.93;3.97;;;11.50;93.40;;;;;;5042139;28;20088;-73
2022/04/19 00:25:16;;;;;;;7.57;4.40;;;11.50;93.10;;;;;;5046502;28;20496;-73
2022/04/19 00:27:42;;;;;;;7.20;4.80;;;11.60;93.30;;;;;;5042744;28;20378;-74
2022/04/19 00:30:08;;;;;;;7.45;5.57;;;11.30;94.00;;;;;;5046978;28;20077;-74
2022/04/19 00:34:59;;;;;;;6.57;3.97;;;11.10;94.40;;;;;;5139114;22;20061;-72
2022/04/19 00:37:25;;;;;;;7.68;4.47;;;11.00;94.40;;;;;;5050861;22;20135;-73
2022/04/19 00:39:51;;;;;;;6.68;4.95;;;11.00;94.50;;;;;;5029964;28;20020;-73
2022/04/19 00:42:17;;;;;;;4.85;4.10;;;11.10;94.20;;;;;;5030245;28;20052;-73
2022/04/19 00:47:59;;;;;;;8.02;5.05;;;11.20;93.80;;;;;;4900833;22;20122;-72
2022/04/19 00:50:25;;;;;;;8.73;4.75;;;11.10;94.10;;;;;;5057810;22;20048;-72
2022/04/19 00:52:51;;;;;;;5.97;4.47;;;11.10;93.60;;;;;;4990562;28;20045;-73
2022/04/19 00:55:17;;;;;;;7.93;4.63;;;11.10;93.40;;;;;;4975902;28;20084;-73
2022/04/19 00:57:46;;;;;;;5.28;4.75;;;11.10;93.40;;;;;;4965008;28;20031;-72
2022/04/19 01:03:21;;;;;;;9.90;5.47;;;11.00;93.30;;;;;;5017168;23;20052;-72
2022/04/19 01:09:33;;;;;;;8.02;5.70;;;11.00;93.80;;;;;;4979937;23;20117;-73
2022/04/19 01:14:46;;;;;;;8.65;5.80;;;10.70;94.50;;;;;;4981716;28;20497;-73
2022/04/19 01:17:14;;;;;;;9.25;5.85;;;10.80;94.00;;;;;;4975614;28;20031;-73
2022/04/19 01:19:39;;;;;;;7.50;6.25;;;10.70;93.90;;;;;;4983347;28;20026;-73
2022/04/19 01:22:06;;;;;;;8.75;5.95;;;10.70;93.70;;;;;;4988161;28;20153;-73
2022/04/19 01:24:32;;;;;;;8.48;6.15;;;10.70;94.00;;;;;;4982545;28;20039;-73
2022/04/19 01:26:58;;;;;;;9.00;6.15;;;10.60;94.70;;;;;;4988185;28;20023;-73
2022/04/19 01:29:25;;;;;;;8.80;6.57;;;10.50;94.30;;;;;;4982583;28;20375;-73
2022/04/19 01:31:51;;;;;;;8.18;6.45;;;10.50;94.10;;;;;;4981508;28;20019;-74
2022/04/19 01:34:21;;;;;;;9.40;6.93;;;10.50;94.50;;;;;;4982875;28;20106;-73
2022/04/19 01:36:46;;;;;;;7.47;6.32;;;10.30;94.80;;;;;;4977686;28;20023;-73
2022/04/19 01:39:12;;;;;;;9.45;6.57;;;10.40;94.20;;;;;;4981744;28;20056;-73
2022/04/19 01:41:39;;;;;;;8.38;6.68;;;10.30;94.50;;;;;;4984522;28;20530;-72
2022/04/19 01:44:07;;;;;;;9.27;6.65;;;10.30;94.30;;;;;;4986352;28;20093;-72
2022/04/19 01:46:33;;;;;;;9.23;6.50;;;10.40;94.70;;;;;;4981866;28;20031;-73
2022/04/19 01:48:59;;;;;;;8.85;6.75;;;10.30;95.30;;;;;;4978387;28;20083;-72
2022/04/19 01:51:25;;;;;;;9.95;7.28;;;10.20;96.20;;;;;;4983136;28;20397;-73
2022/04/19 01:53:51;;;;;;;12.00;7.47;;;10.20;95.60;;;;;;4984362;28;20367;-73
2022/04/19 01:56:17;;;;;;;10.55;7.40;;;10.30;95.30;;;;;;4984257;28;20041;-73
2022/04/19 01:58:44;;;;;;;8.52;6.03;;;10.20;95.50;;;;;;4976810;28;20080;-73
2022/04/19 02:01:09;;;;;;;8.18;6.57;;;10.10;96.60;;;;;;4987029;28;20022;-73
2022/04/19 02:03:35;;;;;;;10.02;6.70;;;10.00;96.60;;;;;;4987907;28;20035;-73
2022/04/19 02:06:02;;;;;;;7.40;6.55;;;10.10;95.90;;;;;;4989926;28;20030;-72
2022/04/19 02:08:29;;;;;;;8.27;6.45;;;10.10;95.90;;;;;;4976501;28;20151;-74
2022/04/19 02:10:54;;;;;;;9.93;7.65;;;10.10;96.00;;;;;;4986757;28;20030;-73
2022/04/19 02:13:21;;;;;;;11.73;7.38;;;10.00;95.70;;;;;;5000642;28;20037;-73
2022/04/19 02:15:46;;;;;;;8.68;7.03;;;10.00;96.10;;;;;;4998165;28;20392;-73
2022/04/19 02:18:12;;;;;;;10.20;6.70;;;10.00;96.10;;;;;;5007224;28;20025;-73
2022/04/19 02:20:39;;;;;;;10.32;8.02;;;9.90;96.60;;;;;;5005693;28;20053;-74
2022/04/19 02:23:04;;;;;;;12.98;8.57;;;9.90;95.90;;;;;;5002222;28;20026;-73
2022/04/19 02:25:31;;;;;;;11.45;8.15;;;9.90;96.00;;;;;;5001489;28;20034;-73
2022/04/19 02:27:56;;;;;;;10.00;8.30;;;9.90;95.70;;;;;;5001459;28;20069;-73
2022/04/19 02:30:22;;;;;;;12.02;8.93;;;9.90;95.80;;;;;;5001009;28;20462;-73
2022/04/19 02:32:49;;;;;;;11.77;9.05;;;9.90;95.80;;;;;;4998256;28;20023;-73
2022/04/19 02:35:18;;;;;;;13.40;8.65;;;9.90;96.10;;;;;;5002357;28;20088;-73
2022/04/19 02:37:52;;;;;;;11.50;8.50;;;9.80;95.90;;;;;;5001568;28;20053;-72
2022/04/19 02:40:20;;;;;;;12.27;8.98;;;9.80;96.80;;;;;;5003823;28;20478;-73
2022/04/19 02:42:47;;;;;;;9.65;8.65;;;9.80;96.50;;;;;;5004573;28;20096;-73
2022/04/19 02:45:13;;;;;;;9.38;8.38;;;9.70;96.40;;;;;;5007210;28;20450;-73
2022/04/19 02:47:39;;;;;;;13.45;8.60;;;9.70;96.40;;;;;;4989386;28;20059;-73
2022/04/19 02:50:05;;;;;;;12.13;8.38;;;9.80;96.30;;;;;;4999957;28;20116;-73
2022/04/19 02:52:31;;;;;;;10.75;8.90;;;9.70;96.10;;;;;;5000541;28;20070;-73
2022/04/19 02:54:57;;;;;;;14.65;8.32;;;9.70;95.80;;;;;;4993477;28;20021;-72
2022/04/19 02:57:22;;;;;;;10.60;8.90;;;9.60;96.10;;;;;;4999619;28;20030;-72
2022/04/19 02:59:48;;;;;;;13.05;8.32;;;9.60;95.80;;;;;;4997806;28;20109;-72
2022/04/19 03:02:14;;;;;;;12.00;8.02;;;9.60;95.40;;;;;;5003121;28;20038;-72
2022/04/19 03:04:40;;;;;;;12.32;7.93;;;9.60;96.20;;;;;;4997636;28;20041;-72
2022/04/19 03:07:06;;;;;;;9.57;7.75;;;9.60;96.00;;;;;;5001704;28;20022;-72
2022/04/19 03:09:32;;;;;;;12.27;8.60;;;9.60;95.80;;;;;;5009933;28;20385;-72
2022/04/19 03:11:58;;;;;;;8.75;7.35;;;9.60;96.40;;;;;;5010323;28;20042;-72
2022/04/19 03:14:25;;;;;;;9.43;7.90;;;9.60;95.80;;;;;;5000408;28;20033;-72
2022/04/19 03:16:51;;;;;;;11.82;8.35;;;9.60;96.40;;;;;;4998920;28;20029;-71
2022/04/19 03:19:17;;;;;;;10.57;7.20;;;9.50;96.10;;;;;;5003281;28;20083;-71
2022/04/19 03:21:42;;;;;;;10.52;6.90;;;9.50;96.30;;;;;;5001622;28;20030;-72
2022/04/19 03:29:36;;;;;;;9.40;7.90;;;9.50;97.30;;;;;;4993574;28;20171;-71
2022/04/19 03:32:02;;;;;;;8.88;7.40;;;9.30;98.20;;;;;;5003219;28;20101;-72
2022/04/19 03:34:27;;;;;;;9.38;8.10;;;9.20;98.10;;;;;;5004119;28;20030;-72
2022/04/19 03:36:53;;;;;;;10.18;7.85;;;9.20;98.10;;;;;;5003498;28;20030;-72
2022/04/19 03:39:19;;;;;;;13.18;8.25;;;9.10;98.30;;;;;;5000032;28;20045;-72
2022/04/19 03:41:44;;;;;;;11.57;8.25;;;9.20;98.00;;;;;;5000701;28;20105;-72
2022/04/19 03:44:12;;;;;;;10.65;8.85;;;9.20;97.10;;;;;;5001890;28;20036;-71
2022/04/19 03:47:07;;;;;;;11.88;8.38;;;9.20;97.30;;;;;;4998882;28;20022;-72
2022/04/19 03:49:26;;;;;;;10.02;8.10;;;9.20;97.00;;;;;;4994951;28;20084;-72
2022/04/19 03:51:52;;;;;;;13.30;8.80;;;9.20;97.60;;;;;;5005934;28;20017;-72
2022/04/19 03:54:17;;;;;;;11.88;9.35;;;9.20;98.10;;;;;;5000225;28;20041;-72
2022/04/19 03:56:43;;;;;;;11.38;9.50;;;9.20;97.80;;;;;;5001381;28;20489;-72
2022/04/19 03:59:10;;;;;;;11.27;8.27;;;9.20;97.20;;;;;;4997160;28;20084;-72
2022/04/19 04:01:38;;;;;;;14.88;9.27;;;9.20;97.00;;;;;;5000797;28;20061;-72
2022/04/19 04:04:06;;;;;;;12.77;9.50;;;9.20;96.70;;;;;;5001644;28;20133;-72
2022/04/19 04:06:33;;;;;;;10.50;9.07;;;9.10;96.90;;;;;;5001045;28;20489;-71
2022/04/19 04:08:59;;;;;;;10.73;8.90;;;9.10;96.80;;;;;;4998023;28;20041;-72
2022/04/19 04:11:24;;;;;;;13.07;9.80;;;9.10;97.50;;;;;;5002891;28;20030;-72
2022/04/19 04:13:50;;;;;;;13.90;9.60;;;8.90;98.40;;;;;;5004441;28;20026;-71
2022/04/19 04:16:16;;;;;;;15.05;10.30;;;8.90;98.40;;;;;;4999871;28;20462;-72
2022/04/19 04:18:41;;;;;;;12.75;9.57;;;8.90;97.50;;;;;;5004208;28;20034;-72
2022/04/19 04:21:07;;;;;;;13.75;9.95;;;8.90;98.80;;;;;;4997776;28;20030;-72
2022/04/19 04:23:33;;;;;;;12.10;9.68;;;8.90;98.80;;;;;;5000935;28;20041;-72
2022/04/19 04:25:59;;;;;;;12.50;10.20;;;8.80;98.70;;;;;;4988006;28;20118;-72
2022/04/19 04:28:25;;;;;;;15.43;10.70;;;8.70;98.90;;;;;;5001516;28;20018;-72
2022/04/19 04:30:51;;;;;;;13.48;10.57;;;8.70;99.30;;;;;;4999199;28;20038;-72
2022/04/19 04:33:17;;;;;;;13.13;10.00;;;8.70;98.10;;;;;;4995306;28;20034;-72
2022/04/19 04:35:42;;;;;;;15.30;10.50;;;8.80;98.10;;;;;;5003727;28;20028;-72
2022/04/19 04:38:08;;;;;;;12.75;9.95;;;8.70;98.50;;;;;;4999163;28;20088;-72
2022/04/19 04:40:33;;;;;;;16.80;11.60;;;8.70;98.60;;;;;;4999105;28;20030;-72
2022/04/19 04:42:59;;;;;;;15.85;10.02;;;8.70;98.30;;;;;;5004303;28;20477;-72
2022/04/19 04:45:26;;;;;;;14.50;10.23;;;8.70;98.70;;;;;;5003543;28;20077;-72
2022/04/19 04:50:36;;;;;;;12.27;10.32;;;8.60;98.30;;;;;;4996629;28;20079;-72
2022/04/19 04:53:02;;;;;;;13.13;9.70;;;8.60;98.40;;;;;;4999226;28;20038;-72
2022/04/19 04:55:28;;;;;;;13.98;10.38;;;8.60;98.60;;;;;;4999329;28;20401;-72
2022/04/19 04:57:57;;;;;;;16.63;10.65;;;8.60;98.30;;;;;;4998973;28;20033;-72
2022/04/19 05:00:26;;;;;;;15.77;11.43;;;8.60;98.60;;;;;;5002783;28;20029;-72
2022/04/19 05:02:52;;;;;;;13.68;11.15;;;8.50;98.50;;;;;;4999292;28;20049;-72
2022/04/19 05:05:18;;;;;;;12.35;10.60;;;8.60;98.70;;;;;;4996510;28;20562;-72
2022/04/19 05:07:43;;;;;;;17.58;11.90;;;8.60;97.60;;;;;;4999516;28;20495;-72
2022/04/19 05:10:09;;;;;;;17.95;11.85;;;8.50;98.20;;;;;;4999590;28;20037;-72
2022/04/19 05:12:35;;;;;;;14.32;11.45;;;8.50;98.90;;;;;;5000993;28;20061;-72
2022/04/19 05:15:01;;;;;;;15.95;11.43;;;8.60;98.50;;;;;;5001808;28;20022;-72
2022/04/19 05:17:27;;;;;;;14.10;11.30;;;8.60;99.30;;;;;;4994801;28;20098;-72
2022/04/19 05:19:54;;;;;;;15.88;11.27;;;8.50;99.40;;;;;;5002086;28;20034;-72
2022/04/19 05:22:20;;;;;;;14.73;11.40;;;8.50;99.70;;;;;;4994840;28;20026;-72
2022/04/19 05:24:46;;;;;;;20.15;11.52;;;8.60;99.90;;;;;;5001486;28;20035;-72
2022/04/19 05:27:12;;;;;;;16.45;12.05;;;8.60;99.60;;;;;;5003026;28;20525;-72
2022/04/19 05:29:37;;;;;;;18.45;12.20;;;8.50;99.90;;;;;;5003478;28;20458;-72
2022/04/19 05:32:03;;;;;;;18.45;12.57;;;8.50;99.90;;;;;;4998452;28;20027;-71
2022/04/19 05:34:29;;;;;;;16.42;13.70;;;8.50;99.90;;;;;;4998809;28;20058;-71
2022/04/19 05:36:55;;;;;;;17.98;13.63;;;8.50;99.90;;;;;;4999279;28;20100;-72
2022/04/19 05:39:20;;;;;;;17.77;12.93;;;8.50;99.90;;;;;;5003411;28;20474;-72
2022/04/19 05:41:47;;;;;;;18.38;13.00;;;8.50;99.50;;;;;;5001009;28;20083;-72
2022/04/19 05:44:12;;;;;;;17.92;13.60;;;8.60;99.90;;;;;;5003708;28;20118;-72
2022/04/19 05:46:38;;;;;;;17.23;13.70;;;8.60;99.70;;;;;;4985626;28;20109;-72
2022/04/19 05:49:04;;;;;;;19.58;12.85;;;8.70;99.90;;;;;;5001510;28;20030;-72
2022/04/19 05:51:30;;;;;;;19.23;14.05;;;8.70;99.90;;;;;;4998654;28;20114;-72
2022/04/19 05:53:56;;;;;;;45.00;29.17;;;8.70;99.90;;;;;;5003649;28;20026;-72
2022/04/19 05:56:22;;;;;;;24.38;15.43;;;8.70;99.80;;;;;;5004856;28;20090;-71
2022/04/19 05:58:47;;;;;;;19.65;14.25;;;8.70;99.50;;;;;;4997673;28;20097;-72
2022/04/19 06:01:13;;;;;;;20.50;14.27;;;8.80;99.70;;;;;;4996786;28;20030;-72
2022/04/19 06:06:23;;;;;;;17.50;13.35;;;8.90;99.90;;;;;;5000690;28;20386;-73
2022/04/19 06:08:49;;;;;;;20.92;14.65;;;8.90;99.10;;;;;;5002724;28;20018;-72
2022/04/19 06:11:15;;;;;;;23.10;14.50;;;9.00;99.90;;;;;;5005273;28;20038;-71
2022/04/19 06:13:41;;;;;;;27.08;16.02;;;9.10;99.50;;;;;;5001796;28;20041;-71
2022/04/19 06:16:07;;;;;;;23.50;16.38;;;9.00;99.90;;;;;;5006283;28;20026;-72
2022/04/19 06:18:34;;;;;;;20.95;14.95;;;9.20;99.90;;;;;;4999257;28;20023;-72
2022/04/19 06:21:00;;;;;;;25.00;16.65;;;9.20;99.90;;;;;;5001453;28;20038;-72
2022/04/19 06:23:26;;;;;;;25.55;16.40;;;9.20;99.60;;;;;;5000481;28;20036;-71
2022/04/19 06:25:52;;;;;;;23.33;15.82;;;9.40;98.90;;;;;;5008044;28;20026;-71
2022/04/19 06:28:17;;;;;;;22.88;17.08;;;9.40;99.20;;;;;;5011464;28;20099;-72
2022/04/19 06:30:43;;;;;;;26.75;18.42;;;9.60;99.10;;;;;;5009438;28;20273;-72
2022/04/19 06:33:09;;;;;;;20.58;15.52;;;9.60;99.90;;;;;;5001949;28;20030;-72
2022/04/19 06:35:35;;;;;;;22.95;16.38;;;9.70;98.60;;;;;;5006764;28;20112;-71
2022/04/19 06:38:00;;;;;;;24.80;15.90;;;9.80;99.90;;;;;;5006214;28;20041;-71
2022/04/19 06:40:26;;;;;;;24.23;17.13;;;9.90;99.90;;;;;;5006449;28;20026;-72
2022/04/19 06:42:51;;;;;;;25.52;17.25;;;9.90;99.50;;;;;;5011675;28;20159;-72
2022/04/19 06:45:18;;;;;;;22.77;14.52;;;10.00;99.90;;;;;;5000703;28;20030;-72
2022/04/19 06:47:44;;;;;;;30.60;16.92;;;10.20;99.10;;;;;;5004204;28;20465;-72
2022/04/19 06:50:10;;;;;;;26.27;16.77;;;10.30;99.90;;;;;;4994232;28;20096;-71
2022/04/19 06:52:36;;;;;;;24.90;15.77;;;10.40;99.90;;;;;;5002779;28;20482;-72
2022/04/19 06:55:03;;;;;;;25.48;15.93;;;10.50;99.90;;;;;;5001647;28;20022;-72
2022/04/19 06:57:28;;;;;;;25.73;16.58;;;10.70;99.90;;;;;;5001910;28;20033;-72
2022/04/19 06:59:54;;;;;;;28.30;17.58;;;10.70;99.90;;;;;;4999487;28;20033;-72
2022/04/19 07:02:20;;;;;;;23.65;16.55;;;10.90;99.90;;;;;;5009354;28;20058;-72
2022/04/19 07:04:45;;;;;;;27.65;15.82;;;11.00;99.90;;;;;;5001547;28;20693;-72
2022/04/19 07:07:11;;;;;;;25.48;14.90;;;11.10;99.40;;;;;;4983440;28;20378;-72
2022/04/19 07:09:38;;;;;;;26.67;16.70;;;11.30;99.90;;;;;;5002187;28;20039;-73
2022/04/19 07:12:04;;;;;;;24.60;15.50;;;11.50;99.90;;;;;;4986380;28;20037;-73
2022/04/19 07:14:30;;;;;;;25.30;15.77;;;11.70;99.90;;;;;;5006176;28;20022;-72
2022/04/19 07:16:58;;;;;;;25.00;14.80;;;11.80;99.40;;;;;;5006024;28;20026;-73
2022/04/19 07:19:24;;;;;;;23.95;14.00;;;11.80;98.30;;;;;;5005927;28;20444;-72
2022/04/19 07:27:21;;;;;;;24.95;13.77;;;12.20;98.30;;;;;;4986893;28;20460;-72
2022/04/19 07:29:47;;;;;;;25.80;13.98;;;12.30;96.60;;;;;;4994627;28;20435;-72
2022/04/19 07:32:13;;;;;;;23.08;14.27;;;12.50;96.40;;;;;;4988980;28;20018;-73
2022/04/19 07:34:38;;;;;;;26.40;14.90;;;12.70;96.00;;;;;;4995377;28;20022;-72
2022/04/19 07:37:04;;;;;;;23.77;14.55;;;12.90;96.70;;;;;;4997776;28;20032;-73
2022/04/19 07:39:30;;;;;;;21.98;14.05;;;13.00;95.80;;;;;;4998906;28;20108;-73
2022/04/19 07:41:55;;;;;;;21.88;13.45;;;13.10;95.60;;;;;;5005747;28;20104;-73
2022/04/19 07:44:22;;;;;;;27.45;14.07;;;13.20;95.80;;;;;;5009758;28;20026;-73
2022/04/19 07:46:50;;;;;;;23.58;13.38;;;13.30;95.40;;;;;;4999526;28;20048;-73
2022/04/19 07:49:16;;;;;;;22.95;13.43;;;13.50;94.90;;;;;;5004851;28;20038;-72
2022/04/19 07:51:43;;;;;;;20.92;14.25;;;13.60;94.80;;;;;;4980647;28;20041;-74
2022/04/19 07:54:09;;;;;;;27.60;13.55;;;13.80;95.10;;;;;;5002458;28;20058;-74
2022/04/19 07:56:34;;;;;;;20.88;14.05;;;14.00;95.10;;;;;;5005885;28;20123;-74
2022/04/19 07:59:00;;;;;;;26.38;13.40;;;14.20;95.20;;;;;;5001667;28;20106;-74
2022/04/19 08:01:26;;;;;;;26.17;13.70;;;14.30;94.10;;;;;;5006836;28;20026;-73
2022/04/19 08:03:51;;;;;;;24.10;12.63;;;14.50;93.20;;;;;;5000033;28;20064;-74
2022/04/19 08:06:18;;;;;;;21.45;14.13;;;14.60;93.00;;;;;;5003087;28;20030;-73
2022/04/19 08:08:43;;;;;;;23.10;14.20;;;14.80;92.70;;;;;;5001821;28;20072;-72
2022/04/19 08:11:09;;;;;;;21.25;13.93;;;15.00;93.10;;;;;;5007776;28;20042;-73
2022/04/19 08:13:35;;;;;;;22.73;12.35;;;15.20;92.40;;;;;;5005024;28;20022;-74
2022/04/19 08:16:00;;;;;;;19.58;12.65;;;15.20;92.30;;;;;;4998001;28;20102;-74
2022/04/19 08:18:26;;;;;;;20.77;12.25;;;15.30;91.70;;;;;;5006892;28;20030;-74
2022/04/19 08:20:52;;;;;;;19.45;11.57;;;15.50;90.80;;;;;;5006113;28;20014;-74
2022/04/19 08:23:17;;;;;;;18.08;11.55;;;15.60;92.20;;;;;;4996642;28;20100;-74
2022/04/19 08:25:44;;;;;;;19.95;11.55;;;15.60;91.10;;;;;;4999959;28;20083;-74
2022/04/19 08:28:10;;;;;;;20.73;11.32;;;15.80;91.10;;;;;;5000793;28;20030;-74
2022/04/19 08:30:36;;;;;;;19.08;12.38;;;16.00;90.10;;;;;;5002357;28;20065;-73
2022/04/19 08:33:01;;;;;;;18.92;11.68;;;16.00;89.60;;;;;;5003598;28;20423;-74
2022/04/19 08:35:27;;;;;;;16.90;10.68;;;16.10;89.70;;;;;;5005648;28;20022;-74
2022/04/19 08:37:53;;;;;;;20.30;11.68;;;16.10;89.10;;;;;;5005415;28;20034;-75
2022/04/19 08:40:19;;;;;;;23.88;10.63;;;16.30;88.70;;;;;;4997636;28;20500;-74
2022/04/19 08:42:46;;;;;;;19.27;11.32;;;16.40;90.00;;;;;;5002147;28;20117;-73
2022/04/19 08:45:14;;;;;;;16.75;10.43;;;16.50;90.10;;;;;;4999412;28;20026;-74
2022/04/19 08:47:45;;;;;;;19.13;11.60;;;16.60;90.60;;;;;;4999775;28;20435;-74
2022/04/19 08:50:13;;;;;;;22.90;12.57;;;16.80;89.30;;;;;;5004090;28;20029;-74
2022/04/19 08:52:39;;;;;;;21.30;11.32;;;16.80;87.90;;;;;;5007112;28;20027;-74
2022/04/19 08:57:50;;;;;;;19.42;11.07;;;17.00;89.60;;;;;;5000401;28;20054;-74
2022/04/19 09:00:22;;;;;;;21.15;10.88;;;17.10;90.10;;;;;;4999732;28;20022;-74
2022/04/19 09:02:49;;;;;;;18.55;10.00;;;17.20;87.10;;;;;;5000504;28;20026;-74
2022/04/19 09:05:23;;;;;;;17.00;8.63;;;17.40;85.90;;;;;;5001639;28;20049;-74
2022/04/19 09:07:50;;;;;;;15.10;8.98;;;17.30;85.70;;;;;;4988377;28;20113;-74
2022/04/19 09:10:28;;;;;;;13.50;9.07;;;17.50;86.30;;;;;;4989859;28;20034;-73
2022/04/19 09:13:09;;;;;;;15.82;9.60;;;17.60;84.50;;;;;;5008638;28;20511;-74
2022/04/19 09:15:45;;;;;;;12.43;8.90;;;17.50;82.80;;;;;;5001923;28;20200;-73
2022/04/19 09:18:24;;;;;;;13.48;9.10;;;17.50;83.10;;;;;;4999835;28;20026;-74
2022/04/19 09:20:54;;;;;;;14.65;7.82;;;17.80;84.40;;;;;;4997122;28;20050;-74
2022/04/19 09:23:20;;;;;;;15.43;7.95;;;17.70;83.10;;;;;;5008992;28;20060;-74
2022/04/19 09:25:49;;;;;;;13.38;8.73;;;17.90;83.40;;;;;;5000884;28;20078;-74
2022/04/19 09:28:17;;;;;;;14.85;8.77;;;17.90;82.30;;;;;;5005266;28;20087;-74
2022/04/19 09:30:43;;;;;;;14.55;7.63;;;18.00;82.60;;;;;;5006541;28;20022;-73
2022/04/19 09:33:16;;;;;;;13.32;7.97;;;18.10;83.50;;;;;;5002899;28;20113;-72
2022/04/19 09:35:47;;;;;;;12.13;8.15;;;18.30;82.70;;;;;;5006187;28;20030;-74
2022/04/19 09:38:13;;;;;;;11.52;7.68;;;18.50;80.00;;;;;;5006869;28;20072;-73
2022/04/19 09:40:42;;;;;;;8.45;5.40;;;18.60;80.50;;;;;;5000688;28;20054;-74
2022/04/19 09:43:13;;;;;;;10.57;6.47;;;18.60;78.20;;;;;;5008406;28;20022;-74
2022/04/19 09:45:58;;;;;;;10.85;7.25;;;18.70;79.30;;;;;;5008781;28;20095;-74
2022/04/19 09:48:26;;;;;;;8.43;5.07;;;18.80;76.10;;;;;;5001559;28;20496;-73
2022/04/19 09:50:54;;;;;;;9.15;5.75;;;18.80;75.60;;;;;;5008298;28;20026;-73
2022/04/19 09:53:22;;;;;;;9.98;5.18;;;18.80;78.70;;;;;;5006259;28;20018;-73
2022/04/19 09:55:50;;;;;;;9.05;6.00;;;19.00;77.90;;;;;;5005014;28;20385;-74
2022/04/19 09:58:16;;;;;;;9.38;5.82;;;19.00;76.00;;;;;;5001583;28;20139;-73
2022/04/19 10:00:44;;;;;;;11.60;6.28;;;19.00;76.10;;;;;;5003296;28;20026;-74
2022/04/19 10:08:40;;;;;;;9.85;6.32;;;19.40;74.80;;;;;;5003493;28;20026;-74
2022/04/19 10:11:07;;;;;;;9.52;5.97;;;19.40;75.80;;;;;;5006229;28;20045;-73
2022/04/19 10:13:36;;;;;;;11.15;6.03;;;19.30;74.60;;;;;;5005908;28;20036;-74
2022/04/19 10:16:02;;;;;;;10.00;5.85;;;19.30;75.20;;;;;;5004780;28;20433;-73
2022/04/19 10:18:27;;;;;;;7.78;5.50;;;19.30;74.10;;;;;;4999449;28;20027;-73
2022/04/19 10:20:56;;;;;;;8.98;5.93;;;19.40;75.30;;;;;;4999600;28;20048;-73
2022/04/19 10:23:39;;;;;;;7.50;5.70;;;19.40;74.50;;;;;;4997852;28;20040;-73
2022/04/19 10:26:24;;;;;;;6.10;5.05;;;19.40;74.90;;;;;;5006520;28;20072;-73
2022/04/19 10:28:55;;;;;;;6.40;5.45;;;19.30;74.40;;;;;;5007527;28;20109;-73
2022/04/19 10:31:39;;;;;;;12.30;5.47;;;19.40;72.00;;;;;;5008984;28;20500;-73
2022/04/19 10:34:05;;;;;;;7.40;5.93;;;19.50;73.30;;;;;;5006989;28;20114;-74
2022/04/19 10:36:39;;;;;;;7.45;5.97;;;19.80;74.20;;;;;;5000321;28;20133;-73
2022/04/19 10:39:11;;;;;;;9.05;4.80;;;19.90;73.90;;;;;;5005715;28;20034;-73
2022/04/19 10:41:57;;;;;;;7.30;4.95;;;20.00;74.80;;;;;;4998860;28;20029;-73
2022/04/19 10:44:45;;;;;;;7.45;4.93;;;20.00;74.00;;;;;;5001455;28;20129;-73
2022/04/19 10:47:14;;;;;;;6.47;4.88;;;20.10;72.70;;;;;;5005923;28;20065;-73
2022/04/19 10:49:56;;;;;;;11.65;6.45;;;20.20;70.20;;;;;;5001707;28;20078;-73
2022/04/19 10:52:40;;;;;;;;;;;20.30;73.50;;;;;;5005413;28;20052;-73
2022/04/19 10:55:18;;;;;;;9.50;5.93;;;20.30;72.60;;;;;;4992263;28;20304;-73
2022/04/19 10:58:09;;;;;;;7.65;5.53;;;20.50;72.70;;;;;;5004535;28;20101;-73
2022/04/19 11:00:41;;;;;;;8.52;6.35;;;20.60;71.90;;;;;;5004581;28;20054;-74
2022/04/19 11:03:08;;;;;;;8.50;5.90;;;20.60;73.60;;;;;;5001353;28;20096;-74
2022/04/19 11:05:47;;;;;;;11.88;6.78;;;20.60;71.90;;;;;;4988160;28;20146;-74
2022/04/19 11:08:24;;;;;;;10.50;6.60;;;20.70;69.80;;;;;;5002292;28;20085;-73
2022/04/19 11:10:50;;;;;;;7.55;6.07;;;20.80;71.20;;;;;;5002854;28;20474;-74
2022/04/19 11:13:17;;;;;;;11.75;6.55;;;20.70;72.10;;;;;;4998853;28;20026;-74
2022/04/19 11:15:42;;;;;;;9.95;6.13;;;20.80;71.80;;;;;;5004522;28;20030;-74
2022/04/19 11:18:27;;;;;;;9.05;5.68;;;20.80;69.80;;;;;;5003331;28;20107;-74
2022/04/19 11:20:54;;;;;;;10.18;6.95;;;20.60;71.80;;;;;;4993022;28;20034;-73
2022/04/19 11:23:25;;;;;;;8.95;6.00;;;20.70;71.90;;;;;;5002849;28;20041;-74
2022/04/19 11:25:53;;;;;;;9.68;5.95;;;20.70;70.00;;;;;;5007335;28;20025;-74
2022/04/19 11:28:30;;;;;;;9.68;6.60;;;20.80;73.00;;;;;;5007011;28;20040;-74
2022/04/19 11:30:56;;;;;;;9.05;6.55;;;21.00;72.20;;;;;;5007349;28;20033;-73
2022/04/19 11:33:31;;;;;;;8.35;5.68;;;21.10;68.50;;;;;;4998469;28;20026;-73
2022/04/19 11:36:18;;;;;;;6.57;5.40;;;21.20;70.90;;;;;;5000628;28;20095;-74
2022/04/19 11:38:49;;;;;;;9.48;6.22;;;21.20;66.10;;;;;;4999445;28;20027;-74
2022/04/19 11:46:51;;;;;;;9.35;6.68;;;21.40;68.50;;;;;;5005047;28;20464;-74
2022/04/19 11:49:19;;;;;;;7.25;6.40;;;21.30;67.40;;;;;;5004603;28;20053;-74
2022/04/19 11:51:45;;;;;;;11.43;6.40;;;21.30;68.10;;;;;;4997325;28;20026;-75
2022/04/19 11:54:19;;;;;;;7.10;5.78;;;21.20;66.80;;;;;;5000518;28;20057;-74
2022/04/19 11:56:45;;;;;;;10.02;6.10;;;21.40;67.20;;;;;;5001030;28;20026;-74
2022/04/19 11:59:11;;;;;;;9.02;5.88;;;21.20;65.60;;;;;;4998546;28;20037;-74
2022/04/19 12:01:36;;;;;;;8.35;5.78;;;21.30;67.70;;;;;;5001528;28;20468;-74
2022/04/19 12:04:12;;;;;;;8.25;5.50;;;21.50;66.20;;;;;;5003263;28;20034;-77
2022/04/19 12:06:38;;;;;;;7.25;5.82;;;21.60;66.20;;;;;;5004892;28;20087;-77
2022/04/19 12:09:04;;;;;;;7.60;5.78;;;21.40;65.00;;;;;;4998654;28;20042;-77
2022/04/19 12:11:30;;;;;;;9.52;6.47;;;21.30;65.10;;;;;;5021101;28;20048;-78
2022/04/19 12:13:57;;;;;;;9.68;6.30;;;21.30;66.10;;;;;;4997624;28;20084;-76
2022/04/19 12:16:39;;;;;;;7.82;5.53;;;21.30;67.80;;;;;;4998945;28;20031;-75
2022/04/19 12:19:09;;;;;;;11.82;7.25;;;21.40;67.10;;;;;;4993210;28;20028;-75
2022/04/19 12:21:38;;;;;;;10.02;6.55;;;21.20;65.70;;;;;;4997133;28;20542;-74
2022/04/19 12:24:05;;;;;;;8.45;6.38;;;21.30;67.70;;;;;;5005745;28;20051;-74
2022/04/19 12:26:31;;;;;;;8.90;5.60;;;21.50;68.10;;;;;;5000542;28;20056;-73
2022/04/19 12:29:07;;;;;;;9.93;6.22;;;21.30;66.50;;;;;;5005201;28;20022;-74
2022/04/19 12:31:39;;;;;;;7.28;6.13;;;21.60;67.70;;;;;;4999745;28;20452;-74
2022/04/19 12:34:05;;;;;;;10.60;5.93;;;21.70;67.00;;;;;;5003970;28;20659;-74
2022/04/19 12:36:41;;;;;;;8.07;6.13;;;21.70;67.70;;;;;;5005117;28;20037;-74
2022/04/19 12:39:08;;;;;;;9.25;5.20;;;21.70;66.40;;;;;;5003977;28;20055;-74
2022/04/19 12:41:44;;;;;;;7.00;5.30;;;21.70;64.60;;;;;;5005134;28;20117;-74
2022/04/19 12:44:18;;;;;;;10.90;4.90;;;21.80;65.10;;;;;;5000128;28;20060;-74
2022/04/19 12:46:50;;;;;;;9.63;5.50;;;22.00;66.40;;;;;;4999858;28;20109;-74
2022/04/19 12:49:26;;;;;;;9.00;5.13;;;21.80;63.80;;;;;;5000463;28;20109;-74
2022/04/19 12:52:05;;;;;;;6.93;5.03;;;21.70;62.00;;;;;;5003771;28;20359;-74
2022/04/19 12:54:33;;;;;;;8.05;4.68;;;21.80;63.30;;;;;;5007483;28;20087;-74
2022/04/19 12:57:02;;;;;;;8.30;5.45;;;22.00;65.50;;;;;;4996886;28;20070;-73
2022/04/19 12:59:32;;;;;;;7.82;4.45;;;22.00;68.20;;;;;;5002187;28;20082;-74
2022/04/19 13:01:59;;;;;;;10.07;6.13;;;21.80;66.10;;;;;;5003206;28;20473;-74
2022/04/19 13:04:25;;;;;;;10.07;5.45;;;21.80;65.20;;;;;;5000441;28;20038;-74
2022/04/19 13:12:22;;;;;;;7.85;5.45;;;22.00;65.30;;;;;;5001057;28;20048;-73
2022/04/19 13:14:50;;;;;;;8.85;6.20;;;22.20;69.00;;;;;;4984639;28;20037;-74
2022/04/19 13:17:16;;;;;;;10.02;6.32;;;22.40;67.60;;;;;;5001958;28;20034;-74
2022/04/19 13:19:43;;;;;;;9.95;5.60;;;22.20;66.00;;;;;;4982054;28;20485;-74
2022/04/19 13:22:09;;;;;;;8.07;5.80;;;22.10;66.70;;;;;;5001750;28;20026;-73
2022/04/19 13:24:36;;;;;;;8.98;6.38;;;22.10;67.20;;;;;;4999480;28;20413;-74
2022/04/19 13:27:03;;;;;;;7.00;5.30;;;22.20;66.70;;;;;;5001911;28;20021;-74
2022/04/19 13:29:29;;;;;;;8.32;5.93;;;22.30;67.70;;;;;;4999064;28;20078;-75
2022/04/19 13:31:55;;;;;;;8.68;5.82;;;22.30;65.10;;;;;;4996955;28;20117;-74
2022/04/19 13:34:22;;;;;;;6.78;5.03;;;22.10;64.50;;;;;;5001910;28;20034;-74